createdAt,value
2023-04-30T00:01:33.127Z,65.60
2023-04-30T00:04:00.484Z,65.50
2023-04-30T00:06:28.575Z,65.50
2023-04-30T00:08:56.255Z,65.50
2023-04-30T00:11:24.002Z,65.60
2023-04-30T00:13:51.187Z,65.70
2023-04-30T00:16:18.931Z,65.70
2023-04-30T00:18:45.950Z,65.70
2023-04-30T00:21:13.174Z,65.70
2023-04-30T00:23:40.241Z,65.60
2023-04-30T00:26:07.496Z,65.50
2023-04-30T00:28:35.231Z,65.30
2023-04-30T00:31:03.505Z,65.30
2023-04-30T00:33:30.657Z,65.20
2023-04-30T00:35:57.822Z,65.10
2023-04-30T00:38:25.287Z,65.00
2023-04-30T00:40:52.994Z,64.90
2023-04-30T00:43:20.030Z,64.90
2023-04-30T00:45:47.068Z,64.90
2023-04-30T00:48:14.240Z,64.90
2023-04-30T00:50:42.057Z,64.70
2023-04-30T00:53:09.328Z,64.70
2023-04-30T00:55:37.376Z,64.60
2023-04-30T00:58:04.863Z,64.50
2023-04-30T01:00:32.199Z,64.50
2023-04-30T01:02:59.471Z,64.50
2023-04-30T01:05:26.788Z,64.50
2023-04-30T01:07:55.846Z,64.40
2023-04-30T01:10:32.698Z,64.30
2023-04-30T01:13:07.921Z,64.20
2023-04-30T01:15:39.565Z,64.10
2023-04-30T01:18:11.474Z,63.90
2023-04-30T01:20:45.768Z,64.00
2023-04-30T01:23:31.110Z,64.00
2023-04-30T01:26:01.715Z,64.10
2023-04-30T01:28:28.900Z,64.20
2023-04-30T01:30:59.690Z,64.20
2023-04-30T01:33:27.600Z,64.00
2023-04-30T01:36:01.265Z,64.00
2023-04-30T01:38:47.146Z,64.00
2023-04-30T01:41:26.652Z,64.10
2023-04-30T01:44:00.819Z,64.20
2023-04-30T01:46:31.454Z,64.20
2023-04-30T01:49:01.697Z,64.30
2023-04-30T01:51:37.861Z,64.50
2023-04-30T01:54:09.586Z,64.50
2023-04-30T01:56:40.363Z,64.40
2023-04-30T01:59:08.721Z,64.50
2023-04-30T02:01:37.130Z,64.60
2023-04-30T02:04:05.303Z,64.60
2023-04-30T02:06:33.696Z,64.80
2023-04-30T02:09:05.713Z,65.00
2023-04-30T02:11:33.337Z,65.00
2023-04-30T02:14:00.662Z,65.30
2023-04-30T02:16:27.867Z,65.40
2023-04-30T02:18:55.106Z,65.30
2023-04-30T02:21:22.185Z,65.50
2023-04-30T02:23:50.015Z,65.50
2023-04-30T02:26:17.291Z,65.60
2023-04-30T02:28:44.828Z,65.70
2023-04-30T02:31:12.086Z,65.70
2023-04-30T02:33:39.245Z,65.80
2023-04-30T02:36:07.468Z,65.80
2023-04-30T02:38:35.038Z,65.80
2023-04-30T02:41:02.806Z,65.80
2023-04-30T02:43:30.072Z,65.80
2023-04-30T02:45:57.284Z,65.70
2023-04-30T02:48:27.893Z,65.60
2023-04-30T02:50:55.445Z,65.60
2023-04-30T02:53:22.534Z,65.60
2023-04-30T02:55:49.720Z,65.60
2023-04-30T02:58:20.005Z,65.40
2023-04-30T03:00:47.083Z,65.40
2023-04-30T03:03:14.786Z,65.40
2023-04-30T03:05:42.941Z,65.40
2023-04-30T03:08:10.145Z,65.30
2023-04-30T03:10:37.410Z,65.30
2023-04-30T03:13:04.772Z,65.30
2023-04-30T03:15:33.661Z,65.40
2023-04-30T03:18:01.155Z,65.30
2023-04-30T03:20:28.359Z,65.30
2023-04-30T03:22:58.555Z,65.40
2023-04-30T03:25:26.184Z,65.40
2023-04-30T03:27:53.634Z,65.50
2023-04-30T03:30:21.648Z,65.30
2023-04-30T03:32:49.032Z,65.30
2023-04-30T03:35:16.848Z,65.30
2023-04-30T03:37:44.059Z,65.40
2023-04-30T03:40:11.928Z,65.80
2023-04-30T03:42:42.328Z,65.80
2023-04-30T03:45:09.830Z,66.00
2023-04-30T03:47:37.844Z,66.10
2023-04-30T03:50:05.323Z,66.10
2023-04-30T03:52:33.945Z,65.90
2023-04-30T03:55:01.437Z,65.80
2023-04-30T03:57:29.091Z,65.80
2023-04-30T03:59:56.577Z,66.00
2023-04-30T04:02:25.889Z,65.90
2023-04-30T04:04:53.360Z,66.00
2023-04-30T04:07:20.510Z,66.00
2023-04-30T04:09:48.485Z,65.90
2023-04-30T04:12:15.740Z,66.00
2023-04-30T04:14:42.780Z,66.00
2023-04-30T04:17:09.824Z,65.90
2023-04-30T04:19:36.841Z,65.90
2023-04-30T04:22:04.750Z,66.00
2023-04-30T04:24:32.486Z,66.10
2023-04-30T04:27:00.078Z,66.00
2023-04-30T04:29:27.554Z,66.00
2023-04-30T04:31:55.864Z,66.10
2023-04-30T04:34:23.634Z,66.00
2023-04-30T04:36:50.637Z,65.80
2023-04-30T04:39:18.377Z,65.80
2023-04-30T04:41:45.715Z,66.00
2023-04-30T04:44:16.480Z,66.10
2023-04-30T04:46:46.691Z,66.10
2023-04-30T04:49:13.927Z,66.10
2023-04-30T04:51:42.200Z,66.20
2023-04-30T04:54:09.301Z,66.30
2023-04-30T04:56:36.575Z,66.50
2023-04-30T04:59:07.004Z,66.50
2023-04-30T05:01:34.597Z,66.40
2023-04-30T05:04:01.939Z,66.20
2023-04-30T05:06:29.871Z,66.20
2023-04-30T05:08:57.264Z,66.30
2023-04-30T05:11:26.559Z,66.20
2023-04-30T05:13:53.792Z,66.10
2023-04-30T05:16:21.420Z,65.90
2023-04-30T05:18:48.630Z,65.80
2023-04-30T05:21:16.795Z,65.70
2023-04-30T05:23:44.885Z,65.50
2023-04-30T05:26:12.488Z,65.40
2023-04-30T05:28:39.670Z,65.30
2023-04-30T05:31:07.421Z,65.20
2023-04-30T05:33:37.266Z,65.20
2023-04-30T05:36:04.799Z,65.20
2023-04-30T05:38:31.841Z,65.00
2023-04-30T05:40:59.260Z,64.90
2023-04-30T05:43:29.003Z,64.90
2023-04-30T05:45:56.893Z,64.80
2023-04-30T05:48:26.956Z,64.80
2023-04-30T05:50:54.890Z,64.80
2023-04-30T05:53:22.133Z,64.80
2023-04-30T05:55:51.214Z,64.70
2023-04-30T05:58:18.724Z,64.80
2023-04-30T06:00:49.229Z,64.80
2023-04-30T06:03:16.639Z,64.70
2023-04-30T06:05:44.974Z,64.60
2023-04-30T06:08:12.201Z,64.70
2023-04-30T06:10:39.744Z,64.50
2023-04-30T06:13:09.831Z,64.40
2023-04-30T06:15:37.323Z,64.30
2023-04-30T06:18:04.746Z,64.10
2023-04-30T06:20:31.932Z,64.00
2023-04-30T06:23:00.515Z,63.90
2023-04-30T06:25:31.305Z,63.90
2023-04-30T06:27:58.839Z,63.80
2023-04-30T06:30:26.430Z,63.80
2023-04-30T06:32:53.656Z,63.80
2023-04-30T06:35:21.301Z,63.80
2023-04-30T06:37:49.097Z,63.50
2023-04-30T06:40:16.635Z,63.50
2023-04-30T06:42:46.837Z,63.30
2023-04-30T06:45:15.673Z,63.30
2023-04-30T06:47:43.445Z,63.00
2023-04-30T06:50:11.272Z,62.80
2023-04-30T06:52:40.194Z,62.60
2023-04-30T06:55:08.683Z,62.30
2023-04-30T06:57:38.025Z,62.00
2023-04-30T07:00:08.549Z,61.80
2023-04-30T07:02:36.428Z,61.90
2023-04-30T07:05:03.726Z,61.80
2023-04-30T07:07:31.874Z,61.80
2023-04-30T07:10:02.265Z,61.80
2023-04-30T07:12:30.125Z,61.70
2023-04-30T07:14:59.630Z,61.50
2023-04-30T07:17:27.899Z,61.50
2023-04-30T07:19:55.405Z,61.10
2023-04-30T07:22:22.718Z,61.00
2023-04-30T07:24:50.555Z,60.90
2023-04-30T07:27:17.773Z,60.70
2023-04-30T07:29:45.061Z,60.50
2023-04-30T07:32:12.334Z,60.40
2023-04-30T07:34:41.103Z,60.30
2023-04-30T07:37:09.564Z,60.00
2023-04-30T07:39:37.645Z,59.90
2023-04-30T07:42:05.253Z,59.80
2023-04-30T07:44:32.761Z,59.80
2023-04-30T07:46:59.797Z,59.60
2023-04-30T07:49:27.124Z,59.40
2023-04-30T07:51:54.400Z,59.40
2023-04-30T07:54:22.117Z,59.20
2023-04-30T07:56:49.742Z,59.30
2023-04-30T07:59:17.902Z,59.10
2023-04-30T08:01:45.787Z,58.90
2023-04-30T08:04:14.248Z,58.70
2023-04-30T08:06:41.698Z,58.70
2023-04-30T08:09:09.479Z,58.70
2023-04-30T08:11:37.380Z,58.60
2023-04-30T08:14:04.944Z,58.50
2023-04-30T08:16:32.755Z,58.50
2023-04-30T08:19:00.886Z,58.40
2023-04-30T08:21:28.501Z,58.20
2023-04-30T08:23:58.803Z,58.10
2023-04-30T08:26:26.343Z,57.90
2023-04-30T08:28:53.584Z,56.60
2023-04-30T08:31:21.760Z,56.60
2023-04-30T08:33:49.442Z,56.10
2023-04-30T08:36:16.673Z,56.30
2023-04-30T08:38:43.762Z,56.60
2023-04-30T08:41:14.697Z,56.80
2023-04-30T08:43:42.212Z,56.90
2023-04-30T08:46:09.935Z,56.80
2023-04-30T08:48:37.142Z,56.80
2023-04-30T08:51:05.136Z,56.30
2023-04-30T08:53:38.267Z,55.80
2023-04-30T08:56:06.609Z,55.50
2023-04-30T08:58:34.963Z,54.70
2023-04-30T09:01:03.401Z,55.10
2023-04-30T09:03:31.677Z,55.20
2023-04-30T09:05:58.961Z,55.20
2023-04-30T09:09:01.803Z,55.40
2023-04-30T09:11:30.010Z,55.10
2023-04-30T09:14:00.570Z,55.20
2023-04-30T09:16:30.393Z,54.80
2023-04-30T09:18:57.576Z,54.30
2023-04-30T09:21:35.209Z,53.70
2023-04-30T09:24:03.697Z,53.10
2023-04-30T09:26:35.317Z,52.50
2023-04-30T09:29:08.398Z,52.90
2023-04-30T09:31:36.734Z,52.60
2023-04-30T09:34:04.587Z,52.50
2023-04-30T09:36:32.056Z,52.70
2023-04-30T09:39:11.472Z,52.70
2023-04-30T09:41:45.594Z,51.80
2023-04-30T09:44:28.933Z,51.20
2023-04-30T09:47:00.693Z,50.60
2023-04-30T09:49:27.996Z,50.70
2023-04-30T09:51:56.638Z,50.80
2023-04-30T09:54:28.385Z,51.20
2023-04-30T09:57:01.920Z,51.80
2023-04-30T09:59:39.805Z,51.50
2023-04-30T10:02:08.326Z,50.90
2023-04-30T10:04:37.326Z,50.10
2023-04-30T10:07:06.676Z,50.20
2023-04-30T10:09:42.383Z,49.60
2023-04-30T10:12:15.751Z,49.90
2023-04-30T10:14:46.220Z,50.10
2023-04-30T10:17:14.836Z,49.90
2023-04-30T10:19:47.755Z,49.50
2023-04-30T10:22:15.784Z,49.50
2023-04-30T10:24:44.180Z,49.00
2023-04-30T10:27:11.299Z,47.50
2023-04-30T10:29:38.538Z,47.50
2023-04-30T10:32:07.077Z,47.40
2023-04-30T10:34:53.609Z,47.10
2023-04-30T10:37:29.400Z,47.20
2023-04-30T10:39:58.827Z,47.40
2023-04-30T10:42:29.338Z,47.80
2023-04-30T10:44:57.187Z,47.80
2023-04-30T10:47:31.723Z,46.10
2023-04-30T10:50:06.320Z,46.60
2023-04-30T10:52:33.391Z,46.40
2023-04-30T10:55:04.866Z,45.90
2023-04-30T10:57:31.978Z,45.50
2023-04-30T11:00:13.368Z,45.40
2023-04-30T11:02:49.430Z,45.60
2023-04-30T11:05:18.602Z,45.80
2023-04-30T11:07:50.045Z,45.70
2023-04-30T11:10:21.296Z,45.70
2023-04-30T11:12:50.811Z,45.90
2023-04-30T11:15:19.371Z,46.50
2023-04-30T11:17:48.646Z,47.00
2023-04-30T11:20:20.431Z,47.40
2023-04-30T11:22:47.650Z,47.80
2023-04-30T11:25:19.336Z,48.10
2023-04-30T11:27:47.131Z,48.50
2023-04-30T11:30:16.000Z,48.60
2023-04-30T11:32:45.080Z,48.80
2023-04-30T11:35:13.230Z,49.00
2023-04-30T11:37:44.412Z,49.20
2023-04-30T11:40:16.583Z,49.60
2023-04-30T11:42:49.172Z,50.00
2023-04-30T11:45:23.768Z,50.10
2023-04-30T11:47:57.528Z,50.20
2023-04-30T11:50:31.132Z,49.60
2023-04-30T11:52:59.672Z,49.40
2023-04-30T11:55:27.157Z,49.40
2023-04-30T11:57:56.921Z,49.10
2023-04-30T12:00:29.082Z,49.00
2023-04-30T12:02:57.130Z,49.00
2023-04-30T12:05:27.586Z,48.50
2023-04-30T12:08:00.579Z,48.00
2023-04-30T12:10:27.848Z,47.70
2023-04-30T12:12:55.746Z,47.50
2023-04-30T12:15:27.025Z,47.50
2023-04-30T12:17:59.062Z,47.40
2023-04-30T12:20:32.709Z,46.40
2023-04-30T12:23:00.818Z,45.70
2023-04-30T12:25:29.266Z,45.20
2023-04-30T12:27:59.350Z,44.80
2023-04-30T12:30:31.766Z,44.60
2023-04-30T12:33:03.418Z,44.50
2023-04-30T12:35:34.703Z,44.20
2023-04-30T12:38:06.163Z,43.80
2023-04-30T12:40:33.244Z,43.00
2023-04-30T12:43:04.937Z,42.90
2023-04-30T12:45:48.704Z,42.80
2023-04-30T12:48:16.904Z,42.30
2023-04-30T12:51:05.397Z,42.20
2023-04-30T12:53:32.894Z,42.60
2023-04-30T12:56:17.795Z,42.70
2023-04-30T12:58:50.196Z,42.20
2023-04-30T13:01:18.538Z,41.70
2023-04-30T13:03:46.311Z,41.70
2023-04-30T13:06:16.604Z,41.70
2023-04-30T13:08:57.026Z,41.80
2023-04-30T13:11:29.059Z,42.00
2023-04-30T13:13:59.554Z,42.60
2023-04-30T13:16:31.283Z,42.80
2023-04-30T13:18:58.701Z,42.70
2023-04-30T13:21:29.083Z,42.50
2023-04-30T13:26:31.783Z,42.80
2023-04-30T13:28:59.337Z,42.50
2023-04-30T13:31:27.707Z,42.20
2023-04-30T13:33:58.873Z,41.80
2023-04-30T13:36:30.178Z,41.80
2023-04-30T13:39:00.551Z,41.60
2023-04-30T13:41:27.783Z,40.80
2023-04-30T13:43:57.594Z,40.40
2023-04-30T13:46:26.926Z,39.90
2023-04-30T13:48:54.016Z,38.80
2023-04-30T13:51:21.689Z,38.10
2023-04-30T13:53:49.186Z,38.00
2023-04-30T13:56:17.387Z,38.90
2023-04-30T13:58:45.078Z,38.70
2023-04-30T14:01:12.798Z,38.60
2023-04-30T14:03:41.762Z,38.60
2023-04-30T14:06:12.646Z,38.90
2023-04-30T14:08:40.151Z,39.30
2023-04-30T14:11:10.352Z,39.80
2023-04-30T14:13:42.527Z,40.20
2023-04-30T14:16:10.140Z,39.90
2023-04-30T14:18:37.636Z,39.60
2023-04-30T14:21:06.028Z,39.60
2023-04-30T14:23:34.698Z,39.70
2023-04-30T14:26:01.906Z,39.90
2023-04-30T14:28:29.348Z,39.20
2023-04-30T14:30:59.330Z,39.00
2023-04-30T14:33:27.509Z,38.40
2023-04-30T14:35:57.890Z,38.20
2023-04-30T14:38:25.128Z,38.80
2023-04-30T14:40:52.367Z,38.90
2023-04-30T14:43:22.431Z,39.20
2023-04-30T14:45:52.094Z,39.60
2023-04-30T14:48:19.591Z,40.10
2023-04-30T14:50:47.398Z,40.40
2023-04-30T14:53:14.964Z,40.60
2023-04-30T14:55:44.056Z,40.90
2023-04-30T14:58:15.898Z,41.00
2023-04-30T15:00:43.148Z,41.30
2023-04-30T15:03:10.464Z,41.50
2023-04-30T15:05:45.627Z,41.90
2023-04-30T15:08:12.841Z,42.20
2023-04-30T15:10:43.200Z,42.30
2023-04-30T15:13:10.465Z,42.30
2023-04-30T15:15:38.853Z,42.40
2023-04-30T15:18:08.260Z,42.60
2023-04-30T15:20:35.799Z,42.80
2023-04-30T15:23:03.336Z,42.80
2023-04-30T15:25:31.879Z,42.90
2023-04-30T15:28:00.121Z,42.90
2023-04-30T15:30:27.865Z,43.00
2023-04-30T15:32:55.484Z,43.20
2023-04-30T15:35:22.699Z,43.40
2023-04-30T15:37:51.760Z,43.50
2023-04-30T15:40:21.968Z,43.60
2023-04-30T15:42:49.516Z,43.60
2023-04-30T15:45:17.008Z,43.10
2023-04-30T15:47:44.688Z,43.20
2023-04-30T15:50:12.504Z,43.20
2023-04-30T15:52:40.269Z,43.20
2023-04-30T15:55:09.741Z,43.20
2023-04-30T15:57:37.442Z,43.10
2023-04-30T16:00:05.463Z,43.10
2023-04-30T16:02:32.741Z,42.90
2023-04-30T16:05:02.176Z,42.70
2023-04-30T16:07:34.513Z,42.70
2023-04-30T16:10:03.098Z,42.70
2023-04-30T16:12:31.041Z,42.70
2023-04-30T16:14:58.658Z,42.80
2023-04-30T16:17:26.017Z,43.00
2023-04-30T16:19:53.431Z,43.10
2023-04-30T16:22:23.300Z,43.10
2023-04-30T16:24:50.487Z,43.10
2023-04-30T16:27:18.495Z,43.10
2023-04-30T16:29:45.546Z,43.20
2023-04-30T16:32:14.795Z,43.20
2023-04-30T16:34:42.521Z,43.30
2023-04-30T16:37:09.877Z,43.50
2023-04-30T16:39:37.155Z,43.60
2023-04-30T16:42:04.576Z,43.80
2023-04-30T16:44:34.022Z,44.00
2023-04-30T16:47:01.316Z,44.10
2023-04-30T16:49:28.856Z,44.30
2023-04-30T16:51:57.368Z,44.40
2023-04-30T16:54:24.910Z,44.60
2023-04-30T16:56:54.133Z,44.80
2023-04-30T16:59:21.384Z,44.90
2023-04-30T17:01:48.665Z,45.00
2023-04-30T17:04:17.494Z,45.10
2023-04-30T17:06:45.737Z,45.20
2023-04-30T17:09:15.555Z,45.40
2023-04-30T17:11:45.405Z,45.30
2023-04-30T17:14:13.392Z,45.30
2023-04-30T17:16:40.993Z,45.50
2023-04-30T17:19:08.727Z,45.60
2023-04-30T17:21:37.586Z,45.60
2023-04-30T17:24:14.430Z,45.80
2023-04-30T17:26:42.530Z,45.90
2023-04-30T17:29:09.540Z,46.10
2023-04-30T17:31:36.794Z,46.40
2023-04-30T17:34:06.444Z,46.60
2023-04-30T17:36:34.590Z,46.80
2023-04-30T17:39:05.855Z,47.00
2023-04-30T17:41:33.045Z,47.30
2023-04-30T17:44:00.891Z,47.50
2023-04-30T17:46:28.477Z,47.80
2023-04-30T17:48:59.372Z,48.00
2023-04-30T17:51:29.629Z,48.20
2023-04-30T17:53:57.928Z,48.20
2023-04-30T17:56:26.782Z,48.40
2023-04-30T17:58:56.807Z,48.50
2023-04-30T18:01:27.345Z,48.60
2023-04-30T18:03:55.296Z,48.70
2023-04-30T18:06:23.539Z,48.80
2023-04-30T18:08:51.069Z,48.80
2023-04-30T18:11:18.213Z,48.90
2023-04-30T18:13:45.833Z,49.00
2023-04-30T18:16:14.737Z,49.20
2023-04-30T18:18:41.878Z,49.40
2023-04-30T18:21:09.146Z,49.60
2023-04-30T18:23:37.347Z,49.80
2023-04-30T18:26:05.130Z,50.20
2023-04-30T18:28:32.203Z,50.40
2023-04-30T18:30:59.779Z,50.70
2023-04-30T18:33:27.564Z,50.90
2023-04-30T18:35:58.297Z,51.00
2023-04-30T18:38:30.353Z,51.10
2023-04-30T18:41:02.747Z,51.20
2023-04-30T18:43:30.600Z,51.30
2023-04-30T18:46:01.268Z,51.30
2023-04-30T18:48:29.757Z,51.40
2023-04-30T18:50:58.391Z,51.60
2023-04-30T18:53:27.935Z,51.70
2023-04-30T18:55:57.032Z,51.80
2023-04-30T18:58:24.394Z,52.00
2023-04-30T19:00:51.611Z,51.90
2023-04-30T19:03:19.315Z,52.00
2023-04-30T19:05:47.555Z,51.90
2023-04-30T19:08:15.990Z,51.90
2023-04-30T19:10:43.236Z,51.80
2023-04-30T19:13:10.438Z,51.80
2023-04-30T19:15:37.838Z,51.80
2023-04-30T19:18:05.461Z,51.80
2023-04-30T19:20:33.003Z,51.80
2023-04-30T19:23:00.453Z,52.00
2023-04-30T19:25:28.985Z,51.90
2023-04-30T19:28:02.668Z,51.90
2023-04-30T19:30:33.934Z,51.90
2023-04-30T19:33:01.997Z,51.90
2023-04-30T19:35:30.946Z,51.90
2023-04-30T19:37:58.371Z,52.00
2023-04-30T19:40:25.743Z,52.10
2023-04-30T19:42:54.848Z,52.30
2023-04-30T19:45:22.485Z,52.40
2023-04-30T19:47:50.201Z,52.60
2023-04-30T19:50:17.356Z,52.80
2023-04-30T19:52:44.707Z,52.90
2023-04-30T19:55:14.393Z,53.00
2023-04-30T19:57:45.293Z,53.20
2023-04-30T20:00:14.156Z,53.40
2023-04-30T20:02:45.247Z,53.50
2023-04-30T20:05:13.083Z,53.60
2023-04-30T20:07:40.433Z,53.80
2023-04-30T20:10:10.254Z,53.90
2023-04-30T20:12:37.522Z,54.00
2023-04-30T20:15:05.530Z,54.20
2023-04-30T20:17:36.807Z,54.20
2023-04-30T20:20:04.791Z,54.30
2023-04-30T20:22:35.927Z,54.40
2023-04-30T20:25:04.012Z,54.50
2023-04-30T20:27:36.439Z,54.60
2023-04-30T20:30:08.260Z,54.90
2023-04-30T20:32:36.039Z,54.90
2023-04-30T20:35:03.928Z,55.20
2023-04-30T20:37:33.932Z,55.30
2023-04-30T20:40:04.905Z,55.40
2023-04-30T20:42:33.342Z,55.60
2023-04-30T20:45:02.509Z,56.10
2023-04-30T20:47:32.922Z,56.40
2023-04-30T20:50:00.178Z,56.60
2023-04-30T20:52:27.817Z,56.90
2023-04-30T20:54:57.226Z,56.90
2023-04-30T20:57:24.589Z,57.10
2023-04-30T20:59:52.110Z,57.10
2023-04-30T21:02:26.347Z,57.20
2023-04-30T21:04:58.684Z,57.20
2023-04-30T21:07:26.663Z,57.30
2023-04-30T21:09:57.320Z,57.40
2023-04-30T21:12:25.663Z,57.50
2023-04-30T21:14:52.876Z,57.60
2023-04-30T21:17:20.405Z,57.70
2023-04-30T21:19:49.328Z,57.70
2023-04-30T21:22:16.376Z,57.80
2023-04-30T21:24:43.816Z,57.80
2023-04-30T21:27:11.574Z,57.90
2023-04-30T21:29:42.483Z,58.00
2023-04-30T21:32:09.969Z,58.00
2023-04-30T21:34:37.401Z,58.10
2023-04-30T21:37:07.177Z,58.20
2023-04-30T21:39:34.642Z,58.30
2023-04-30T21:42:01.689Z,58.40
2023-04-30T21:44:31.208Z,58.40
2023-04-30T21:46:58.418Z,58.50
2023-04-30T21:49:29.309Z,58.70
2023-04-30T21:51:57.026Z,58.80
2023-04-30T21:54:26.773Z,58.90
2023-04-30T21:56:55.023Z,59.00
2023-04-30T21:59:22.160Z,59.10
2023-04-30T22:01:49.231Z,59.10
2023-04-30T22:04:16.875Z,59.20
2023-04-30T22:06:43.986Z,59.20
2023-04-30T22:09:11.140Z,59.20
2023-04-30T22:11:38.752Z,59.30
2023-04-30T22:14:07.049Z,59.30
2023-04-30T22:16:34.349Z,59.20
2023-04-30T22:19:01.806Z,59.30
2023-04-30T22:21:29.836Z,59.10
2023-04-30T22:23:58.855Z,59.20
2023-04-30T22:26:28.690Z,59.20
2023-04-30T22:28:58.364Z,59.30
2023-04-30T22:31:28.684Z,59.30
2023-04-30T22:33:58.455Z,59.20
2023-04-30T22:36:27.408Z,59.40
2023-04-30T22:38:55.975Z,59.70
2023-04-30T22:41:25.671Z,59.70
2023-04-30T22:43:53.496Z,59.80
2023-04-30T22:46:21.053Z,59.80
2023-04-30T22:48:48.608Z,59.70
2023-04-30T22:51:15.880Z,60.10
2023-04-30T22:53:42.965Z,60.10
2023-04-30T22:56:11.204Z,60.20
2023-04-30T22:58:40.590Z,60.20
2023-04-30T23:01:09.524Z,60.10
2023-04-30T23:03:38.501Z,60.20
2023-04-30T23:06:06.095Z,60.20
2023-04-30T23:08:33.794Z,60.30
2023-04-30T23:11:01.809Z,60.10
2023-04-30T23:13:31.989Z,60.20
2023-04-30T23:15:59.844Z,60.50
2023-04-30T23:18:28.493Z,60.40
2023-04-30T23:20:59.268Z,60.40
2023-04-30T23:23:27.880Z,60.60
2023-04-30T23:25:56.114Z,60.60
2023-04-30T23:28:28.896Z,60.60
2023-04-30T23:30:56.523Z,60.80
2023-04-30T23:33:23.873Z,61.00
2023-04-30T23:35:53.199Z,61.20
2023-04-30T23:38:20.860Z,61.30
2023-04-30T23:40:48.284Z,61.40
2023-04-30T23:43:15.370Z,61.80
2023-04-30T23:45:45.963Z,62.00
2023-04-30T23:48:13.273Z,62.20
2023-04-30T23:50:40.580Z,62.10
2023-04-30T23:53:08.238Z,62.20
2023-04-30T23:55:35.327Z,62.10
2023-04-30T23:58:02.362Z,62.10
